Time;durP1;ratioP1;P1;durP2;ratioP2;P2;SDS_P1;SDS_P2;PMS_P1;PMS_P2;Temp;Humidity;BMP_temperature;BMP_pressure;BME280_temperature;BME280_humidity;BME280_pressure;Samples;Min_cycle;Max_cycle;Signal;HPM_P1;HPM_P2
2022/08/24 00:01:23;;;;;;;23.33;20.98;;;21.10;99.90;;;;;;4958461;28;20043;-48
2022/08/24 00:03:49;;;;;;;23.63;21.10;;;21.00;99.90;;;;;;4965043;28;20383;-48
2022/08/24 00:06:18;;;;;;;23.25;20.77;;;20.90;99.90;;;;;;4956399;28;20053;-49
2022/08/24 00:08:46;;;;;;;22.83;20.52;;;20.90;99.90;;;;;;4960016;28;20058;-46
2022/08/24 00:11:12;;;;;;;28.50;21.30;;;21.00;99.90;;;;;;4964191;28;20042;-45
2022/08/24 00:13:37;;;;;;;23.73;21.13;;;21.00;99.90;;;;;;4959182;28;20056;-48
2022/08/24 00:16:08;;;;;;;25.23;22.52;;;21.00;99.90;;;;;;4961428;28;20042;-46
2022/08/24 00:18:34;;;;;;;25.45;21.38;;;21.10;99.90;;;;;;4959754;28;20051;-47
2022/08/24 00:21:00;;;;;;;23.38;21.02;;;21.20;99.90;;;;;;4960314;28;20038;-48
2022/08/24 00:23:27;;;;;;;22.90;20.45;;;21.10;99.90;;;;;;4959315;28;20039;-47
2022/08/24 00:25:54;;;;;;;24.85;22.35;;;21.10;99.90;;;;;;4958247;28;20051;-44
2022/08/24 00:28:19;;;;;;;25.55;22.83;;;21.20;99.90;;;;;;4958776;28;20039;-48
2022/08/24 00:30:45;;;;;;;26.23;22.48;;;21.30;99.90;;;;;;4961596;28;20454;-50
2022/08/24 00:33:11;;;;;;;25.20;22.63;;;21.20;99.90;;;;;;4941727;28;20501;-47
2022/08/24 00:35:36;;;;;;;28.25;21.27;;;21.20;99.90;;;;;;4958625;28;20046;-46
2022/08/24 00:38:02;;;;;;;25.20;20.85;;;21.10;99.90;;;;;;4961455;28;20502;-47
2022/08/24 00:40:38;;;;;;;25.15;21.80;;;21.10;99.90;;;;;;4961697;28;20047;-49
2022/08/24 00:43:06;;;;;;;24.33;21.92;;;21.10;99.90;;;;;;4955013;28;20094;-49
2022/08/24 00:46:17;;;;;;;25.08;22.58;;;21.10;99.90;;;;;;4945735;28;20039;-47
2022/08/24 00:48:48;;;;;;;23.60;21.25;;;21.10;99.90;;;;;;4970532;28;20038;-47
2022/08/24 00:51:27;;;;;;;23.38;21.08;;;21.00;99.90;;;;;;4955343;28;20184;-47
2022/08/24 00:54:00;;;;;;;22.58;20.17;;;21.00;99.90;;;;;;4964214;28;20034;-45
2022/08/24 00:56:30;;;;;;;22.73;20.33;;;20.90;99.90;;;;;;4958207;28;20502;-48
2022/08/24 00:59:03;;;;;;;21.13;18.92;;;20.80;99.90;;;;;;4957104;28;20038;-46
2022/08/24 01:01:32;;;;;;;20.73;18.80;;;20.80;99.90;;;;;;4959371;28;20035;-47
2022/08/24 01:03:58;;;;;;;20.85;18.67;;;20.70;99.90;;;;;;4952848;28;20090;-47
2022/08/24 01:06:25;;;;;;;19.77;17.67;;;20.70;99.90;;;;;;4964875;28;20039;-44
2022/08/24 01:08:50;;;;;;;22.13;18.55;;;20.70;99.90;;;;;;4968253;28;20043;-46
2022/08/24 01:11:20;;;;;;;19.58;17.67;;;20.60;99.90;;;;;;4972592;28;20089;-47
2022/08/24 01:13:49;;;;;;;18.73;16.92;;;20.50;99.90;;;;;;4972798;28;20042;-47
2022/08/24 01:18:48;;;;;;;18.30;16.40;;;20.30;99.90;;;;;;4954334;28;20118;-48
2022/08/24 01:19:15;;;;;;;20.00;18.10;;;20.30;99.90;;;;;;4959945;28;20108;-47
2022/08/24 01:22:16;;;;;;;23.17;20.85;;;20.20;99.90;;;;;;4953204;28;20046;-48
2022/08/24 01:24:42;;;;;;;22.55;20.35;;;20.20;99.90;;;;;;4953125;28;20050;-48
2022/08/24 01:27:09;;;;;;;22.45;20.30;;;20.20;99.90;;;;;;4956521;28;20061;-49
2022/08/24 01:29:36;;;;;;;21.83;19.73;;;20.20;99.90;;;;;;4972437;28;20082;-49
2022/08/24 01:32:02;;;;;;;23.02;20.70;;;20.20;99.90;;;;;;4972345;28;20391;-48
2022/08/24 01:34:28;;;;;;;23.40;21.15;;;20.10;99.90;;;;;;4953650;28;20495;-47
2022/08/24 01:36:56;;;;;;;23.80;21.38;;;20.10;99.90;;;;;;4953070;28;20079;-49
2022/08/24 01:39:37;;;;;;;24.35;21.95;;;20.20;99.90;;;;;;4955157;28;20122;-48
2022/08/24 01:42:03;;;;;;;24.05;21.75;;;20.10;99.90;;;;;;4954634;28;20031;-47
2022/08/24 01:44:33;;;;;;;25.35;22.65;;;20.10;99.90;;;;;;4968466;28;20550;-48
2022/08/24 01:46:59;;;;;;;25.67;23.27;;;20.10;99.90;;;;;;4958319;28;20039;-49
2022/08/24 01:49:28;;;;;;;26.70;24.05;;;20.10;99.90;;;;;;4953721;28;20053;-46
2022/08/24 01:51:54;;;;;;;27.83;25.13;;;20.00;99.90;;;;;;4953030;28;20043;-46
2022/08/24 01:54:21;;;;;;;27.75;25.02;;;20.00;99.90;;;;;;4965834;28;20487;-47
2022/08/24 01:56:47;;;;;;;28.70;25.88;;;20.00;99.90;;;;;;4969151;28;20035;-46
2022/08/24 01:59:12;;;;;;;28.88;26.08;;;19.90;99.90;;;;;;4971426;28;20101;-47
2022/08/24 02:01:47;;;;;;;30.50;27.50;;;20.00;99.90;;;;;;4966574;28;20031;-47
2022/08/24 02:04:14;;;;;;;29.67;26.67;;;20.00;99.90;;;;;;4960867;28;20120;-47
2022/08/24 02:06:40;;;;;;;30.27;27.23;;;19.90;99.90;;;;;;4959338;28;20506;-45
2022/08/24 02:09:06;;;;;;;31.48;28.33;;;19.90;99.90;;;;;;4971816;28;20043;-49
2022/08/24 02:11:33;;;;;;;31.48;28.33;;;19.90;99.90;;;;;;4971917;28;20468;-46
2022/08/24 02:13:59;;;;;;;31.65;28.55;;;19.80;99.90;;;;;;4971741;28;20186;-47
2022/08/24 02:16:26;;;;;;;30.45;27.42;;;19.80;99.90;;;;;;4962147;28;20531;-48
2022/08/24 02:18:52;;;;;;;30.38;27.25;;;19.90;99.90;;;;;;4952974;28;20141;-46
2022/08/24 02:21:17;;;;;;;30.88;27.88;;;19.80;99.90;;;;;;4971750;28;20082;-47
2022/08/24 02:23:43;;;;;;;31.90;28.75;;;19.80;99.90;;;;;;4964320;28;20146;-45
2022/08/24 02:26:11;;;;;;;31.73;28.63;;;19.80;99.90;;;;;;4960680;28;20057;-46
2022/08/24 02:28:38;;;;;;;31.63;28.42;;;19.80;99.90;;;;;;4957413;28;20035;-47
2022/08/24 02:31:05;;;;;;;30.95;27.83;;;19.80;99.90;;;;;;4955050;28;20125;-47
2022/08/24 02:33:33;;;;;;;32.58;29.23;;;19.80;99.90;;;;;;4968139;28;20042;-47
2022/08/24 02:35:59;;;;;;;31.38;28.38;;;19.80;99.90;;;;;;4952934;28;20075;-48
2022/08/24 02:38:24;;;;;;;30.80;27.77;;;19.80;99.90;;;;;;4967802;28;20513;-44
2022/08/24 02:40:50;;;;;;;27.33;24.63;;;19.80;99.90;;;;;;4952587;28;20074;-46
2022/08/24 02:43:16;;;;;;;25.80;23.33;;;19.80;99.90;;;;;;4952637;28;20399;-46
2022/08/24 02:45:44;;;;;;;24.63;22.33;;;19.80;99.90;;;;;;4971379;28;20407;-44
2022/08/24 02:48:11;;;;;;;24.83;22.52;;;19.80;99.90;;;;;;4971146;28;20043;-47
2022/08/24 02:50:42;;;;;;;24.27;22.10;;;19.70;99.90;;;;;;4963946;28;20043;-47
2022/08/24 02:53:09;;;;;;;27.15;24.60;;;19.70;99.90;;;;;;4960043;28;20083;-46
2022/08/24 02:55:38;;;;;;;25.23;22.83;;;19.60;99.90;;;;;;4969985;28;20454;-47
2022/08/24 02:58:04;;;;;;;26.65;24.20;;;19.60;99.90;;;;;;4952084;28;20054;-45
2022/08/24 03:00:30;;;;;;;24.50;22.25;;;19.60;99.90;;;;;;4957147;28;20049;-48
2022/08/24 03:02:56;;;;;;;23.77;21.48;;;19.60;99.90;;;;;;4962716;28;20094;-47
2022/08/24 03:05:22;;;;;;;25.13;22.67;;;19.50;99.90;;;;;;4951157;28;20035;-49
2022/08/24 03:07:48;;;;;;;25.02;22.75;;;19.50;99.90;;;;;;4951878;28;20039;-47
2022/08/24 03:10:14;;;;;;;26.15;23.75;;;19.50;99.90;;;;;;4955416;28;20090;-47
2022/08/24 03:12:40;;;;;;;26.50;24.10;;;19.50;99.90;;;;;;4959986;28;20042;-45
2022/08/24 03:15:09;;;;;;;29.45;26.63;;;19.40;99.90;;;;;;4967149;28;20066;-48
2022/08/24 03:17:36;;;;;;;28.52;25.92;;;19.50;99.90;;;;;;4971255;28;20054;-47
2022/08/24 03:20:05;;;;;;;26.45;23.92;;;19.40;99.90;;;;;;4956184;28;20453;-46
2022/08/24 03:22:31;;;;;;;25.10;22.67;;;19.40;99.90;;;;;;4970560;28;20451;-48
2022/08/24 03:24:56;;;;;;;24.40;22.05;;;19.30;99.90;;;;;;4974262;28;20138;-49
2022/08/24 03:27:22;;;;;;;23.40;21.25;;;19.30;99.90;;;;;;4962324;28;20047;-47
2022/08/24 03:29:48;;;;;;;25.60;23.13;;;19.30;99.90;;;;;;4969155;28;20035;-47
2022/08/24 03:32:14;;;;;;;24.60;22.40;;;19.20;99.90;;;;;;4974188;28;20042;-46
2022/08/24 03:34:39;;;;;;;23.13;21.02;;;19.20;99.90;;;;;;4961682;28;20047;-45
2022/08/24 03:37:05;;;;;;;22.73;20.50;;;19.20;99.90;;;;;;4937520;28;20035;-46
2022/08/24 03:39:31;;;;;;;23.55;21.35;;;19.10;99.90;;;;;;4954865;28;20477;-48
2022/08/24 03:41:56;;;;;;;26.02;23.63;;;19.20;99.90;;;;;;4955120;28;21383;-46
2022/08/24 03:44:24;;;;;;;24.25;21.95;;;19.10;99.90;;;;;;4955180;28;20035;-48
2022/08/24 03:46:51;;;;;;;24.75;22.45;;;19.00;99.90;;;;;;4956046;28;20510;-48
2022/08/24 03:49:18;;;;;;;25.75;23.38;;;19.10;99.90;;;;;;4973740;28;20486;-46
2022/08/24 03:51:43;;;;;;;27.13;24.42;;;19.10;99.90;;;;;;4973901;28;20101;-47
2022/08/24 03:54:10;;;;;;;25.33;22.88;;;19.10;99.90;;;;;;4955656;28;20062;-47
2022/08/24 03:56:37;;;;;;;26.15;23.65;;;19.00;99.90;;;;;;4957997;28;20065;-49
2022/08/24 03:59:04;;;;;;;29.77;26.23;;;19.00;99.90;;;;;;4954744;28;20046;-46
2022/08/24 04:01:30;;;;;;;29.80;27.00;;;19.00;99.90;;;;;;4954568;28;20057;-48
2022/08/24 04:03:56;;;;;;;30.98;28.05;;;19.00;99.90;;;;;;4939259;28;20126;-46
2022/08/24 04:06:22;;;;;;;29.63;26.77;;;19.00;99.90;;;;;;4971478;28;20170;-45
2022/08/24 04:08:48;;;;;;;27.65;25.13;;;18.90;99.90;;;;;;4954380;28;20047;-48
2022/08/24 04:11:17;;;;;;;30.88;28.02;;;18.90;99.90;;;;;;4954602;28;20043;-46
2022/08/24 04:13:44;;;;;;;30.85;27.75;;;18.90;99.90;;;;;;4967646;28;20090;-49
2022/08/24 04:16:12;;;;;;;31.33;28.25;;;18.90;99.90;;;;;;4966480;28;20039;-46
2022/08/24 04:18:38;;;;;;;31.05;28.00;;;18.90;99.90;;;;;;4954341;28;20491;-49
2022/08/24 04:21:05;;;;;;;32.60;29.30;;;18.90;99.90;;;;;;4959412;28;20114;-46
2022/08/24 04:23:35;;;;;;;32.80;29.65;;;18.90;99.90;;;;;;4959812;28;20078;-49
2022/08/24 04:26:03;;;;;;;31.00;27.92;;;18.90;99.90;;;;;;4936615;28;20059;-46
2022/08/24 04:28:30;;;;;;;35.10;31.55;;;18.90;99.90;;;;;;4963562;28;20039;-46
2022/08/24 04:30:56;;;;;;;33.80;30.38;;;18.90;99.90;;;;;;4973294;28;20122;-46
2022/08/24 04:33:22;;;;;;;34.30;30.75;;;19.00;99.90;;;;;;4969381;28;20035;-48
2022/08/24 04:35:49;;;;;;;32.47;29.40;;;18.90;99.90;;;;;;4957423;28;20097;-47
2022/08/24 04:38:16;;;;;;;34.03;30.63;;;18.90;99.90;;;;;;4954598;28;20046;-49
2022/08/24 04:40:43;;;;;;;33.53;30.20;;;18.90;99.90;;;;;;4957444;28;20043;-46
2022/08/24 04:43:10;;;;;;;32.13;28.88;;;19.00;99.90;;;;;;4958673;28;20126;-48
2022/08/24 04:45:40;;;;;;;29.98;27.15;;;18.80;99.90;;;;;;4954474;28;20087;-46
2022/08/24 04:48:06;;;;;;;32.45;29.08;;;18.90;99.90;;;;;;4967361;28;20062;-49
2022/08/24 04:50:37;;;;;;;30.95;27.95;;;18.90;99.90;;;;;;4958923;28;20510;-48
2022/08/24 04:53:04;;;;;;;30.10;27.27;;;18.80;99.90;;;;;;4966069;28;20043;-47
2022/08/24 04:55:31;;;;;;;25.98;23.35;;;18.70;99.90;;;;;;4972980;28;20045;-47
2022/08/24 04:57:57;;;;;;;26.52;23.60;;;18.70;99.90;;;;;;4958074;28;20144;-48
2022/08/24 05:00:23;;;;;;;24.17;21.90;;;18.70;99.90;;;;;;4953569;28;20123;-46
2022/08/24 05:02:48;;;;;;;22.38;20.08;;;18.60;99.90;;;;;;4953286;28;20035;-46
2022/08/24 05:05:14;;;;;;;21.88;19.88;;;18.50;99.90;;;;;;4954634;28;20090;-48
2022/08/24 05:07:41;;;;;;;22.20;20.08;;;18.50;99.90;;;;;;4954675;28;20039;-48
2022/08/24 05:10:09;;;;;;;19.20;17.50;;;18.50;99.90;;;;;;4972836;28;20031;-44
2022/08/24 05:12:36;;;;;;;18.65;16.95;;;18.50;99.90;;;;;;4969791;28;20062;-44
2022/08/24 05:15:03;;;;;;;18.02;16.45;;;18.50;99.90;;;;;;4951774;28;20043;-49
2022/08/24 05:17:28;;;;;;;17.98;16.30;;;18.50;99.90;;;;;;4953159;28;20043;-50
2022/08/24 05:19:55;;;;;;;19.30;17.50;;;18.60;99.90;;;;;;4964173;28;20042;-45
2022/08/24 05:22:21;;;;;;;18.10;16.40;;;18.70;99.90;;;;;;4968169;28;20047;-48
2022/08/24 05:24:46;;;;;;;17.40;15.80;;;18.80;99.90;;;;;;4969171;28;20043;-48
2022/08/24 05:27:12;;;;;;;18.42;16.73;;;18.80;99.90;;;;;;4961953;28;20594;-49
2022/08/24 05:29:38;;;;;;;19.92;17.92;;;18.80;99.90;;;;;;4954421;28;20479;-47
2022/08/24 05:32:04;;;;;;;19.40;17.42;;;18.70;99.90;;;;;;4965914;28;20035;-49
2022/08/24 05:34:29;;;;;;;22.38;20.35;;;18.80;99.90;;;;;;4958229;28;20046;-45
2022/08/24 05:36:55;;;;;;;21.75;19.50;;;18.90;99.90;;;;;;4966720;28;20047;-50
2022/08/24 05:39:20;;;;;;;20.30;18.30;;;19.00;99.90;;;;;;4964637;28;20047;-48
2022/08/24 05:41:47;;;;;;;23.35;21.02;;;19.00;99.90;;;;;;4972143;28;20034;-50
2022/08/24 05:44:14;;;;;;;22.60;20.50;;;19.10;99.90;;;;;;4971806;28;20038;-46
2022/08/24 05:46:41;;;;;;;23.83;21.45;;;19.20;99.90;;;;;;4972102;28;20045;-46
2022/08/24 05:49:08;;;;;;;25.27;22.52;;;19.20;99.90;;;;;;4971736;28;20046;-46
2022/08/24 05:51:34;;;;;;;26.10;23.40;;;19.30;99.90;;;;;;4966007;28;20395;-47
2022/08/24 05:54:00;;;;;;;26.38;23.73;;;19.30;99.90;;;;;;4964597;28;20044;-47
2022/08/24 05:56:26;;;;;;;25.65;23.00;;;19.40;99.90;;;;;;4936726;28;20529;-47
2022/08/24 05:58:51;;;;;;;31.60;28.42;;;19.50;99.90;;;;;;4955200;28;20082;-48
2022/08/24 06:01:20;;;;;;;29.77;26.67;;;19.50;99.90;;;;;;4964738;28;20447;-49
2022/08/24 06:03:48;;;;;;;30.63;27.63;;;19.60;99.90;;;;;;4952557;28;20134;-47
2022/08/24 06:06:15;;;;;;;35.33;31.55;;;19.70;99.90;;;;;;4971676;28;20050;-46
2022/08/24 06:08:44;;;;;;;33.90;30.55;;;19.80;99.90;;;;;;4964432;28;20043;-49
2022/08/24 06:11:11;;;;;;;37.88;33.75;;;19.80;99.90;;;;;;4956375;28;20463;-44
2022/08/24 06:13:38;;;;;;;39.05;35.05;;;19.80;99.90;;;;;;4953207;28;20114;-47
2022/08/24 06:16:10;;;;;;;40.80;36.50;;;19.90;99.90;;;;;;4958506;28;20043;-47
2022/08/24 06:18:37;;;;;;;42.88;38.38;;;19.90;99.90;;;;;;4968522;28;20047;-48
2022/08/24 06:21:08;;;;;;;41.38;37.10;;;20.00;99.90;;;;;;4952062;28;20075;-48
2022/08/24 06:23:34;;;;;;;42.45;38.05;;;20.10;99.90;;;;;;4952159;28;20517;-48
2022/08/24 06:28:46;;;;;;;41.25;36.88;;;20.10;99.90;;;;;;4955642;28;20049;-44
2022/08/24 06:31:12;;;;;;;41.38;37.03;;;20.20;99.90;;;;;;4961611;28;20035;-48
2022/08/24 06:33:38;;;;;;;43.53;38.88;;;20.20;99.90;;;;;;4963989;28;20047;-47
2022/08/24 06:36:04;;;;;;;48.10;42.55;;;20.30;99.90;;;;;;4954435;28;20156;-46
2022/08/24 06:38:29;;;;;;;46.85;42.05;;;20.30;99.90;;;;;;4961704;28;20113;-49
2022/08/24 06:40:55;;;;;;;42.08;37.80;;;20.40;99.90;;;;;;4956184;28;20074;-46
2022/08/24 06:43:23;;;;;;;43.83;39.50;;;20.40;99.90;;;;;;4971389;28;20061;-49
2022/08/24 06:45:49;;;;;;;43.60;39.08;;;20.50;99.90;;;;;;4955431;28;20110;-47
2022/08/24 06:48:15;;;;;;;44.15;39.55;;;20.60;99.90;;;;;;4956082;28;20039;-46
2022/08/24 06:50:41;;;;;;;41.75;37.35;;;20.60;99.90;;;;;;4954461;28;20512;-49
2022/08/24 06:53:07;;;;;;;43.03;38.67;;;20.70;99.90;;;;;;4963207;28;20126;-47
2022/08/24 06:55:33;;;;;;;39.22;35.33;;;20.70;99.90;;;;;;4963937;28;20118;-48
2022/08/24 06:57:58;;;;;;;37.92;34.17;;;20.80;99.90;;;;;;4956433;28;20566;-45
2022/08/24 07:00:24;;;;;;;40.63;36.45;;;20.90;99.90;;;;;;4954567;28;20514;-47
2022/08/24 07:02:50;;;;;;;38.70;34.80;;;21.00;99.90;;;;;;4959274;28;20031;-47
2022/08/24 07:05:17;;;;;;;38.33;34.38;;;21.10;99.90;;;;;;4958218;28;20050;-48
2022/08/24 07:07:42;;;;;;;35.80;31.88;;;21.10;99.90;;;;;;4959181;28;20496;-49
2022/08/24 07:10:09;;;;;;;34.63;30.95;;;21.20;99.90;;;;;;4959101;28;20058;-44
2022/08/24 07:12:36;;;;;;;35.50;31.92;;;21.40;99.90;;;;;;4959674;28;20038;-49
2022/08/24 07:15:05;;;;;;;36.92;33.28;;;21.40;99.90;;;;;;4955944;28;20035;-44
2022/08/24 07:17:31;;;;;;;38.22;34.20;;;21.40;99.90;;;;;;4958659;28;20069;-46
2022/08/24 07:19:57;;;;;;;37.50;33.47;;;21.50;99.90;;;;;;4956815;28;20066;-48
2022/08/24 07:22:22;;;;;;;37.25;33.25;;;21.60;99.90;;;;;;4960607;28;20115;-46
2022/08/24 07:24:48;;;;;;;35.88;32.38;;;21.70;99.90;;;;;;4959965;28;20054;-48
2022/08/24 07:27:14;;;;;;;37.30;33.45;;;21.70;99.90;;;;;;4958480;28;20043;-46
2022/08/24 07:29:40;;;;;;;34.40;31.00;;;21.80;99.90;;;;;;4927768;28;20039;-46
2022/08/24 07:32:06;;;;;;;35.05;31.45;;;21.80;99.90;;;;;;4960115;28;20390;-45
2022/08/24 07:34:32;;;;;;;30.40;27.38;;;21.90;99.90;;;;;;4959473;28;20130;-46
2022/08/24 07:36:59;;;;;;;32.70;29.38;;;22.00;99.90;;;;;;4958199;28;20073;-47
2022/08/24 07:39:26;;;;;;;32.28;28.98;;;22.10;99.90;;;;;;4959614;28;20114;-45
2022/08/24 07:41:51;;;;;;;30.38;27.17;;;22.20;99.90;;;;;;4959879;28;20077;-50
2022/08/24 07:44:17;;;;;;;28.83;24.25;;;22.30;99.90;;;;;;4959200;28;20086;-43
2022/08/24 07:46:43;;;;;;;26.77;23.70;;;22.40;99.90;;;;;;4959053;28;20384;-45
2022/08/24 07:49:10;;;;;;;27.83;22.85;;;22.40;99.90;;;;;;4942334;28;20039;-46
2022/08/24 07:51:36;;;;;;;26.33;23.52;;;22.50;99.90;;;;;;4959974;28;20051;-46
2022/08/24 07:54:03;;;;;;;27.95;23.90;;;22.60;99.90;;;;;;4958365;28;20046;-46
2022/08/24 07:56:28;;;;;;;23.85;19.73;;;22.70;99.90;;;;;;4958066;28;20073;-42
2022/08/24 07:58:54;;;;;;;24.05;21.45;;;22.70;99.90;;;;;;4959109;28;20070;-46
2022/08/24 08:01:21;;;;;;;24.27;21.80;;;22.70;99.90;;;;;;4957617;28;20061;-48
2022/08/24 08:03:47;;;;;;;24.45;21.77;;;22.80;99.90;;;;;;4956744;28;20109;-45
2022/08/24 08:06:13;;;;;;;24.08;21.13;;;22.90;99.90;;;;;;4957966;28;20071;-47
2022/08/24 08:08:40;;;;;;;25.15;19.23;;;22.90;99.90;;;;;;4940864;28;20117;-47
2022/08/24 08:11:07;;;;;;;21.73;19.42;;;23.00;99.90;;;;;;4958777;28;20035;-47
2022/08/24 08:13:34;;;;;;;21.35;18.63;;;23.10;99.90;;;;;;4958947;28;20525;-45
2022/08/24 08:16:02;;;;;;;20.42;16.73;;;23.10;99.90;;;;;;4958097;28;20070;-44
2022/08/24 08:18:28;;;;;;;25.50;19.67;;;23.10;99.90;;;;;;4957601;28;20117;-46
2022/08/24 08:20:54;;;;;;;20.38;18.27;;;23.20;99.90;;;;;;4958223;28;20138;-46
2022/08/24 08:26:06;;;;;;;19.30;17.05;;;23.30;99.90;;;;;;4955308;28;21407;-48
2022/08/24 08:28:33;;;;;;;21.45;15.70;;;23.50;99.90;;;;;;4940143;28;20089;-46
2022/08/24 08:31:02;;;;;;;18.00;15.13;;;23.50;99.90;;;;;;4957958;28;20054;-50
2022/08/24 08:33:28;;;;;;;15.48;13.48;;;23.60;99.90;;;;;;4956707;28;20111;-48
2022/08/24 08:36:13;;;;;;;18.23;14.32;;;23.70;99.90;;;;;;4957096;28;20043;-49
2022/08/24 08:38:39;;;;;;;16.48;14.25;;;23.80;99.90;;;;;;4957042;28;20051;-47
2022/08/24 08:41:17;;;;;;;16.10;14.30;;;23.90;99.90;;;;;;4957107;28;20038;-47
2022/08/24 08:43:56;;;;;;;20.00;15.13;;;24.00;99.90;;;;;;4956782;28;20045;-46
2022/08/24 08:47:00;;;;;;;17.23;13.45;;;24.10;99.90;;;;;;4956665;28;20526;-48
2022/08/24 08:49:44;;;;;;;17.47;14.70;;;24.20;99.90;;;;;;4899918;29;20962;-45
2022/08/24 08:52:31;;;;;;;15.85;13.57;;;24.30;99.90;;;;;;4952815;28;20133;-47
2022/08/24 08:55:03;;;;;;;19.83;11.85;;;24.40;99.90;;;;;;4957989;28;20034;-45
2022/08/24 08:58:11;;;;;;;25.33;13.07;;;24.60;99.90;;;;;;4956909;28;20040;-46
2022/08/24 09:00:56;;;;;;;13.98;11.43;;;24.70;99.90;;;;;;4959216;28;20082;-47
2022/08/24 09:03:38;;;;;;;16.67;10.43;;;24.80;99.90;;;;;;4956365;28;20533;-48
2022/08/24 09:06:23;;;;;;;12.75;7.90;;;25.00;99.90;;;;;;4958903;28;20039;-47
2022/08/24 09:09:14;;;;;;;11.75;9.10;;;25.20;99.90;;;;;;4955986;28;20042;-48
2022/08/24 09:11:48;;;;;;;11.80;8.07;;;25.40;99.90;;;;;;4954286;28;20062;-47
2022/08/24 09:14:56;;;;;;;10.88;8.25;;;25.50;99.90;;;;;;4951390;28;20035;-47
2022/08/24 09:17:57;;;;;;;10.73;7.07;;;25.70;99.90;;;;;;4952916;28;20893;-46
2022/08/24 09:20:47;;;;;;;11.35;7.65;;;26.00;99.90;;;;;;4954973;28;20101;-45
2022/08/24 09:23:29;;;;;;;12.32;8.10;;;26.00;99.90;;;;;;4956693;28;20121;-47
2022/08/24 09:26:03;;;;;;;16.15;9.38;;;26.20;99.90;;;;;;4954652;28;20460;-47
2022/08/24 09:28:48;;;;;;;11.95;8.10;;;26.30;99.90;;;;;;4955313;28;20047;-47
2022/08/24 09:31:31;;;;;;;11.32;8.13;;;26.40;99.90;;;;;;4956155;28;20046;-48
2022/08/24 09:34:25;;;;;;;12.30;8.32;;;26.50;99.90;;;;;;4954608;28;20038;-45
2022/08/24 09:36:53;;;;;;;;;;;26.70;99.90;;;;;;4929367;28;20043;-45
2022/08/24 09:40:10;;;;;;;11.38;7.95;;;26.70;99.90;;;;;;4955839;28;20388;-46
2022/08/24 09:42:39;;;;;;;11.90;8.10;;;26.90;99.90;;;;;;4920433;28;20051;-48
2022/08/24 09:45:39;;;;;;;11.00;7.80;;;26.90;99.90;;;;;;5070711;27;20510;-45
2022/08/24 09:48:17;;;;;;;9.93;6.85;;;27.00;99.90;;;;;;5073666;28;20082;-44
2022/08/24 09:50:46;;;;;;;11.23;7.57;;;27.10;99.90;;;;;;5070553;28;20055;-43
2022/08/24 09:53:48;;;;;;;9.27;7.65;;;27.10;99.90;;;;;;5073744;28;20060;-45
2022/08/24 09:56:32;;;;;;;10.98;7.40;;;27.20;99.90;;;;;;5072789;28;20082;-47
2022/08/24 09:59:17;;;;;;;;;;;27.20;99.90;;;;;;5066258;28;20053;-47
2022/08/24 10:01:50;;;;;;;9.63;6.07;;;27.40;99.90;;;;;;5072416;28;19916;-45
2022/08/24 10:04:25;;;;;;;9.32;5.18;;;27.40;99.90;;;;;;5071486;28;20086;-46
2022/08/24 10:07:09;;;;;;;7.03;5.03;;;27.50;99.90;;;;;;5073405;28;20036;-46
2022/08/24 10:10:02;;;;;;;8.63;4.75;;;27.50;99.90;;;;;;5073668;28;20100;-46
2022/08/24 10:12:39;;;;;;;8.07;5.35;;;27.60;99.90;;;;;;5073029;28;20035;-45
2022/08/24 10:15:18;;;;;;;9.00;5.07;;;27.60;99.90;;;;;;5073357;28;20048;-47
2022/08/24 10:18:09;;;;;;;8.73;6.35;;;27.60;99.90;;;;;;5072640;28;20427;-46
2022/08/24 10:21:07;;;;;;;7.78;4.72;;;27.70;99.90;;;;;;5070067;28;20510;-47
2022/08/24 10:23:57;;;;;;;5.85;4.15;;;27.70;99.90;;;;;;5073228;28;20407;-45
2022/08/24 10:26:38;;;;;;;7.65;3.85;;;27.70;99.90;;;;;;5073405;28;20071;-44
2022/08/24 10:29:21;;;;;;;8.07;3.60;;;27.90;99.90;;;;;;5071854;28;20041;-46
2022/08/24 10:32:27;;;;;;;5.22;2.90;;;27.90;99.90;;;;;;5072370;28;20357;-47
2022/08/24 10:35:16;;;;;;;7.47;3.80;;;28.00;99.90;;;;;;5072629;28;20044;-48
2022/08/24 10:40:56;;;;;;;7.35;4.35;;;28.30;99.90;;;;;;5072548;28;20181;-45
2022/08/24 10:43:38;;;;;;;8.75;3.80;;;28.20;99.90;;;;;;5073054;28;20049;-45
2022/08/24 10:46:31;;;;;;;5.72;3.17;;;28.40;99.90;;;;;;5072596;28;20044;-47
2022/08/24 10:49:34;;;;;;;5.10;3.00;;;28.40;99.60;;;;;;5072498;28;20040;-45
2022/08/24 10:52:41;;;;;;;5.53;3.00;;;28.40;99.90;;;;;;5066579;28;20040;-47
2022/08/24 10:55:14;;;;;;;6.25;2.70;;;28.40;99.60;;;;;;5040448;28;20044;-45
2022/08/24 10:58:19;;;;;;;5.22;2.40;;;28.50;99.20;;;;;;5034852;28;20045;-47
2022/08/24 11:00:45;;;;;;;6.88;3.00;;;28.70;98.80;;;;;;5045780;28;20045;-46
2022/08/24 11:03:20;;;;;;;8.35;2.60;;;28.70;99.90;;;;;;5053800;28;20044;-48
2022/08/24 11:05:52;;;;;;;7.32;2.80;;;28.90;98.60;;;;;;5054089;28;20040;-46
2022/08/24 11:08:26;;;;;;;9.85;3.00;;;29.00;98.80;;;;;;5054780;28;20025;-49
2022/08/24 11:11:06;;;;;;;4.75;2.33;;;29.10;99.20;;;;;;5047638;28;20470;-48
2022/08/24 11:13:33;;;;;;;5.20;2.70;;;29.10;98.30;;;;;;5051891;28;20829;-44
2022/08/24 11:16:01;;;;;;;4.97;2.55;;;29.40;98.40;;;;;;5049485;28;20435;-45
2022/08/24 11:18:57;;;;;;;4.78;2.45;;;29.50;98.90;;;;;;5048820;28;20498;-45
2022/08/24 11:21:48;;;;;;;4.72;2.25;;;29.60;98.00;;;;;;5048654;28;20057;-48
2022/08/24 11:24:24;;;;;;;5.00;2.22;;;29.70;97.40;;;;;;5046052;28;20048;-44
2022/08/24 11:26:58;;;;;;;6.30;2.20;;;29.90;97.70;;;;;;5052407;28;20043;-48
2022/08/24 11:29:48;;;;;;;4.35;2.28;;;30.00;98.30;;;;;;5050972;28;20044;-44
2022/08/24 11:32:28;;;;;;;6.00;2.30;;;29.80;96.40;;;;;;5052428;28;20036;-44
2022/08/24 11:34:54;;;;;;;3.67;1.92;;;29.90;96.50;;;;;;5051464;28;20459;-47
2022/08/24 11:37:34;;;;;;;4.88;1.30;;;30.00;97.30;;;;;;5049882;28;20128;-48
2022/08/24 11:40:00;;;;;;;4.80;1.70;;;30.10;97.20;;;;;;5049159;28;20419;-45
2022/08/24 11:42:46;;;;;;;3.10;1.80;;;30.30;97.60;;;;;;5050435;28;20059;-47
2022/08/24 11:45:35;;;;;;;3.13;1.70;;;30.40;96.20;;;;;;5051428;28;20037;-46
2022/08/24 11:48:12;;;;;;;5.03;1.48;;;30.80;96.20;;;;;;5049761;28;20044;-48
2022/08/24 11:51:17;;;;;;;3.25;1.20;;;30.60;96.10;;;;;;5053662;28;20060;-47
2022/08/24 11:54:05;;;;;;;3.45;1.25;;;31.00;94.40;;;;;;5053183;28;20082;-47
2022/08/24 11:56:37;;;;;;;4.32;1.42;;;31.00;95.20;;;;;;5049752;28;20040;-46
2022/08/24 11:59:27;;;;;;;2.03;1.00;;;31.20;95.90;;;;;;5046895;28;20123;-47
2022/08/24 12:01:58;;;;;;;4.57;1.27;;;31.30;94.40;;;;;;5045280;28;20574;-45
2022/08/24 12:04:42;;;;;;;3.80;1.25;;;31.60;94.70;;;;;;5049899;28;20502;-45
2022/08/24 12:07:13;;;;;;;4.20;1.20;;;31.60;94.30;;;;;;5046847;28;20029;-46
2022/08/24 12:09:51;;;;;;;2.42;1.15;;;31.40;94.60;;;;;;5048862;28;20074;-45
2022/08/24 12:12:35;;;;;;;2.03;1.02;;;31.40;94.50;;;;;;5048776;28;20123;-48
2022/08/24 12:15:05;;;;;;;2.90;1.27;;;31.70;92.80;;;;;;5049393;28;20119;-49
2022/08/24 12:17:48;;;;;;;2.92;1.15;;;31.90;93.70;;;;;;5047792;28;20629;-45
2022/08/24 12:20:16;;;;;;;2.80;1.10;;;31.80;92.30;;;;;;5048263;28;20048;-49
2022/08/24 12:22:42;;;;;;;5.75;1.30;;;31.20;92.70;;;;;;5048259;28;20099;-46
2022/08/24 12:27:57;;;;;;;3.20;1.15;;;30.70;94.00;;;;;;5051079;28;20052;-45
2022/08/24 12:30:26;;;;;;;3.88;1.35;;;30.80;94.10;;;;;;5050839;28;20065;-47
2022/08/24 12:33:02;;;;;;;3.30;1.40;;;30.80;93.90;;;;;;5050167;28;20179;-47
2022/08/24 12:35:38;;;;;;;2.47;1.10;;;30.40;93.20;;;;;;5051241;28;20091;-45
2022/08/24 12:38:29;;;;;;;4.30;1.42;;;30.20;94.60;;;;;;5052327;28;20047;-45
2022/08/24 12:41:01;;;;;;;3.65;1.23;;;30.10;94.70;;;;;;5051248;28;20033;-48
2022/08/24 12:43:48;;;;;;;2.45;1.27;;;30.10;93.90;;;;;;5049732;28;20049;-45
2022/08/24 12:46:19;;;;;;;3.50;1.15;;;30.10;93.60;;;;;;5050253;28;20064;-49
2022/08/24 12:48:56;;;;;;;6.88;1.30;;;30.60;94.60;;;;;;5049103;28;20032;-46
2022/08/24 12:51:51;;;;;;;3.45;1.05;;;30.50;93.70;;;;;;5051486;28;20040;-45
2022/08/24 12:54:29;;;;;;;3.10;1.35;;;31.20;93.90;;;;;;5049915;28;20051;-49
2022/08/24 12:57:32;;;;;;;4.40;1.30;;;30.80;93.40;;;;;;5050913;28;20059;-45
2022/08/24 13:00:08;;;;;;;4.53;1.20;;;31.40;93.00;;;;;;5046485;28;20059;-47
2022/08/24 13:02:40;;;;;;;2.22;1.10;;;31.70;93.00;;;;;;5051921;28;20046;-47
2022/08/24 13:05:13;;;;;;;2.70;1.10;;;31.80;92.50;;;;;;5050160;28;20063;-45
2022/08/24 13:07:43;;;;;;;2.22;1.00;;;32.20;91.90;;;;;;5052601;28;20472;-47
2022/08/24 13:10:22;;;;;;;2.50;1.10;;;32.10;91.50;;;;;;5051547;28;20040;-49